Time;durP1;ratioP1;P1;durP2;ratioP2;P2;SDS_P1;SDS_P2;PMS_P1;PMS_P2;Temp;Humidity;BMP_temperature;BMP_pressure;BME280_temperature;BME280_humidity;BME280_pressure;Samples;Min_cycle;Max_cycle;Signal;HPM_P1;HPM_P2
2022/03/31 00:00:29;;;;;;;23.92;7.15;;;;;;;;;;4918463;29;20040;-75
2022/03/31 00:02:56;;;;;;;30.10;6.93;;;;;;;;;;4918342;29;20028;-76
2022/03/31 00:05:22;;;;;;;26.95;7.07;;;;;;;;;;4918362;29;20432;-77
2022/03/31 00:07:52;;;;;;;24.27;7.18;;;;;;;;;;4918326;29;20028;-75
2022/03/31 00:10:26;;;;;;;27.55;8.43;;;;;;;;;;4918193;29;20047;-76
2022/03/31 00:12:54;;;;;;;22.77;7.13;;;;;;;;;;4916240;29;20082;-77
2022/03/31 00:15:22;;;;;;;26.83;7.15;;;;;;;;;;4917869;29;20428;-72
2022/03/31 00:17:48;;;;;;;28.77;7.15;;;;;;;;;;4918062;29;20119;-72
2022/03/31 00:20:14;;;;;;;29.58;7.65;;;;;;;;;;4916713;29;20118;-72
2022/03/31 00:22:41;;;;;;;35.65;6.85;;;;;;;;;;4917912;29;20039;-75
2022/03/31 00:25:08;;;;;;;25.77;7.03;;;;;;;;;;4917843;29;20020;-73
2022/03/31 00:27:35;;;;;;;29.60;7.68;;;;;;;;;;4917946;29;20052;-75
2022/03/31 00:30:03;;;;;;;30.45;8.77;;;;;;;;;;4917722;29;20115;-74
2022/03/31 00:32:29;;;;;;;28.40;8.15;;;;;;;;;;4917615;29;20040;-72
2022/03/31 00:34:55;;;;;;;29.83;10.07;;;;;;;;;;4917437;29;20168;-75
2022/03/31 00:37:21;;;;;;;44.45;16.40;;;;;;;;;;4917024;29;20086;-73
2022/03/31 00:39:48;;;;;;;38.67;13.90;;;;;;;;;;4917229;29;20478;-75
2022/03/31 00:42:15;;;;;;;38.35;12.13;;;;;;;;;;4917671;29;20107;-72
2022/03/31 00:44:42;;;;;;;37.55;13.57;;;;;;;;;;4917203;29;20028;-73
2022/03/31 00:47:09;;;;;;;37.85;10.95;;;;;;;;;;4917531;29;20087;-72
2022/03/31 00:49:35;;;;;;;35.20;9.25;;;;;;;;;;4917295;29;20134;-71
2022/03/31 00:52:01;;;;;;;24.40;8.63;;;;;;;;;;4916861;29;20123;-71
2022/03/31 00:54:29;;;;;;;29.13;8.60;;;;;;;;;;4917467;29;20111;-72
2022/03/31 00:56:57;;;;;;;26.52;8.73;;;;;;;;;;4917194;29;20115;-71
2022/03/31 00:59:25;;;;;;;31.10;8.68;;;;;;;;;;4917332;29;20032;-71
2022/03/31 01:01:51;;;;;;;24.50;8.00;;;;;;;;;;4915884;29;20489;-72
2022/03/31 01:04:17;;;;;;;28.20;9.10;;;;;;;;;;4916961;29;20025;-72
2022/03/31 01:06:44;;;;;;;29.90;8.73;;;;;;;;;;4917329;29;20554;-72
2022/03/31 01:09:12;;;;;;;25.83;8.02;;;;;;;;;;4917509;29;20430;-71
2022/03/31 01:11:39;;;;;;;30.60;7.60;;;;;;;;;;4916929;29;20483;-72
2022/03/31 01:14:06;;;;;;;28.48;8.45;;;;;;;;;;4917125;29;20376;-72
2022/03/31 01:16:33;;;;;;;32.40;7.75;;;;;;;;;;4917129;29;20043;-72
2022/03/31 01:19:07;;;;;;;24.35;7.35;;;;;;;;;;4916625;29;20080;-74
2022/03/31 01:21:41;;;;;;;24.23;7.32;;;;;;;;;;4916639;29;20040;-72
2022/03/31 01:24:09;;;;;;;23.35;7.13;;;;;;;;;;4916629;29;20043;-72
2022/03/31 01:26:38;;;;;;;23.23;6.28;;;;;;;;;;4915282;29;20399;-72
2022/03/31 01:29:05;;;;;;;24.73;7.07;;;;;;;;;;4916192;29;20107;-72
2022/03/31 01:31:31;;;;;;;25.90;7.30;;;;;;;;;;4916439;29;20040;-71
2022/03/31 01:33:58;;;;;;;23.83;7.10;;;;;;;;;;4915177;29;20039;-72
2022/03/31 01:36:25;;;;;;;30.42;6.88;;;;;;;;;;4916584;29;20040;-72
2022/03/31 01:38:53;;;;;;;31.63;6.63;;;;;;;;;;4916402;29;20051;-72
2022/03/31 01:41:19;;;;;;;30.90;7.28;;;;;;;;;;4915808;29;20032;-71
2022/03/31 01:43:46;;;;;;;29.10;6.95;;;;;;;;;;4916784;29;20040;-72
2022/03/31 01:46:12;;;;;;;32.60;7.88;;;;;;;;;;4916138;29;20122;-71
2022/03/31 01:48:38;;;;;;;26.65;7.35;;;;;;;;;;4917367;29;20032;-72
2022/03/31 01:51:04;;;;;;;26.90;7.85;;;;;;;;;;4916870;29;20028;-71
2022/03/31 01:53:32;;;;;;;21.05;7.15;;;;;;;;;;4917420;29;20036;-70
2022/03/31 01:55:58;;;;;;;26.50;7.70;;;;;;;;;;4917061;29;20039;-72
2022/03/31 01:58:24;;;;;;;27.60;6.60;;;;;;;;;;4911154;29;20063;-71
2022/03/31 02:00:53;;;;;;;20.40;6.72;;;;;;;;;;4915433;29;20067;-72
2022/03/31 02:03:19;;;;;;;26.95;7.05;;;;;;;;;;4912053;29;20032;-71
2022/03/31 02:05:45;;;;;;;37.20;8.27;;;;;;;;;;4915986;29;20387;-72
2022/03/31 02:08:11;;;;;;;19.42;7.20;;;;;;;;;;4915831;29;20036;-72
2022/03/31 02:10:37;;;;;;;40.05;8.82;;;;;;;;;;4915509;29;20028;-72
2022/03/31 02:13:07;;;;;;;26.63;7.20;;;;;;;;;;4915785;29;20054;-72
2022/03/31 02:15:33;;;;;;;30.63;8.80;;;;;;;;;;4915744;29;20031;-69
2022/03/31 02:18:02;;;;;;;20.55;8.10;;;;;;;;;;4916081;29;20036;-72
2022/03/31 02:20:30;;;;;;;32.95;8.70;;;;;;;;;;4914766;29;20051;-71
2022/03/31 02:23:00;;;;;;;25.23;8.02;;;;;;;;;;4915909;29;20025;-71
2022/03/31 02:25:28;;;;;;;33.33;8.63;;;;;;;;;;4915696;29;20087;-71
2022/03/31 02:27:54;;;;;;;39.45;9.63;;;;;;;;;;4914556;29;20399;-72
2022/03/31 02:30:22;;;;;;;37.67;9.75;;;;;;;;;;4915701;29;20458;-73
2022/03/31 02:32:48;;;;;;;32.95;10.82;;;;;;;;;;4915663;29;20032;-70
2022/03/31 02:35:13;;;;;;;34.33;9.25;;;;;;;;;;4915498;29;20398;-71
2022/03/31 02:37:39;;;;;;;34.75;9.57;;;;;;;;;;4914598;29;20119;-71
2022/03/31 02:40:06;;;;;;;29.60;9.55;;;;;;;;;;4915465;29;20114;-72
2022/03/31 02:42:35;;;;;;;36.22;14.88;;;;;;;;;;4915666;29;20111;-71
2022/03/31 02:45:05;;;;;;;41.25;14.30;;;;;;;;;;4915843;29;20137;-71
2022/03/31 02:47:32;;;;;;;32.70;12.40;;;;;;;;;;4915891;29;20052;-71
2022/03/31 02:49:58;;;;;;;37.75;15.30;;;;;;;;;;4915662;29;20028;-73
2022/03/31 02:52:24;;;;;;;38.33;14.50;;;;;;;;;;4914320;29;20123;-70
2022/03/31 02:57:34;;;;;;;41.42;14.30;;;;;;;;;;4915187;29;20044;-72
2022/03/31 02:59:59;;;;;;;26.85;14.85;;;;;;;;;;4915692;29;20035;-72
2022/03/31 03:02:25;;;;;;;41.55;15.80;;;;;;;;;;4915585;29;20036;-71
2022/03/31 03:04:51;;;;;;;37.47;15.30;;;;;;;;;;4912661;29;20020;-71
2022/03/31 03:07:17;;;;;;;43.03;14.93;;;;;;;;;;4915302;29;20036;-71
2022/03/31 03:09:43;;;;;;;36.50;15.75;;;;;;;;;;4915300;29;20148;-71
2022/03/31 03:12:10;;;;;;;36.80;16.33;;;;;;;;;;4915335;29;20183;-72
2022/03/31 03:14:36;;;;;;;32.35;15.25;;;;;;;;;;4916888;29;20120;-71
2022/03/31 03:17:02;;;;;;;44.08;15.30;;;;;;;;;;4918912;29;20119;-71
2022/03/31 03:19:28;;;;;;;52.70;17.08;;;;;;;;;;4917788;29;20095;-72
2022/03/31 03:21:54;;;;;;;38.97;15.50;;;;;;;;;;4917093;29;20044;-72
2022/03/31 03:24:22;;;;;;;40.58;14.75;;;;;;;;;;4918248;29;20028;-71
2022/03/31 03:26:48;;;;;;;47.38;17.23;;;;;;;;;;4916795;29;20035;-71
2022/03/31 03:29:14;;;;;;;41.75;15.60;;;;;;;;;;4917757;29;20067;-71
2022/03/31 03:31:40;;;;;;;31.88;14.02;;;;;;;;;;4917957;29;20510;-71
2022/03/31 03:34:06;;;;;;;34.00;14.30;;;;;;;;;;4915591;29;20032;-71
2022/03/31 03:36:32;;;;;;;32.30;13.10;;;;;;;;;;4913064;29;20048;-72
2022/03/31 03:38:57;;;;;;;35.97;13.23;;;;;;;;;;4918023;29;20028;-72
2022/03/31 03:41:23;;;;;;;34.28;13.27;;;;;;;;;;4917709;29;20048;-71
2022/03/31 03:43:50;;;;;;;38.20;14.05;;;;;;;;;;4917950;29;20076;-71
2022/03/31 03:46:16;;;;;;;42.85;14.25;;;;;;;;;;4916020;29;20033;-72
2022/03/31 03:48:41;;;;;;;34.75;14.75;;;;;;;;;;4917346;29;20166;-72
2022/03/31 03:51:09;;;;;;;33.50;14.63;;;;;;;;;;4918051;29;20071;-72
2022/03/31 03:53:35;;;;;;;35.13;14.40;;;;;;;;;;4916027;29;20088;-73
2022/03/31 03:56:01;;;;;;;46.00;16.35;;;;;;;;;;4917066;29;20447;-72
2022/03/31 03:58:26;;;;;;;39.90;16.30;;;;;;;;;;4916775;29;20032;-71
2022/03/31 04:00:53;;;;;;;30.70;14.85;;;;;;;;;;4916962;29;20040;-71
2022/03/31 04:03:19;;;;;;;30.88;14.20;;;;;;;;;;4917294;29;20021;-70
2022/03/31 04:05:45;;;;;;;38.28;14.55;;;;;;;;;;4917518;29;20405;-72
2022/03/31 04:08:11;;;;;;;47.17;15.65;;;;;;;;;;4917307;29;20036;-70
2022/03/31 04:10:36;;;;;;;38.67;15.57;;;;;;;;;;4917137;29;20508;-71
2022/03/31 04:13:02;;;;;;;56.63;17.77;;;;;;;;;;4917149;29;20028;-71
2022/03/31 04:15:28;;;;;;;47.08;17.38;;;;;;;;;;4915901;29;20036;-71
2022/03/31 04:17:54;;;;;;;37.72;15.20;;;;;;;;;;4916296;29;20028;-70
2022/03/31 04:20:20;;;;;;;47.58;18.77;;;;;;;;;;4916438;29;20028;-71
2022/03/31 04:22:46;;;;;;;42.70;16.98;;;;;;;;;;4918123;29;20083;-71
2022/03/31 04:25:13;;;;;;;51.70;17.00;;;;;;;;;;4917483;29;20087;-71
2022/03/31 04:27:40;;;;;;;41.22;16.02;;;;;;;;;;4918152;29;20051;-71
2022/03/31 04:30:09;;;;;;;36.55;14.27;;;;;;;;;;4918112;29;20040;-72
2022/03/31 04:32:36;;;;;;;40.55;15.90;;;;;;;;;;4917052;29;20107;-71
2022/03/31 04:35:02;;;;;;;44.13;15.93;;;;;;;;;;4918029;29;20032;-71
2022/03/31 04:37:28;;;;;;;44.05;16.20;;;;;;;;;;4917914;29;20036;-71
2022/03/31 04:39:54;;;;;;;57.50;17.38;;;;;;;;;;4918126;29;20515;-72
2022/03/31 04:42:20;;;;;;;65.35;19.33;;;;;;;;;;4917635;29;20054;-71
2022/03/31 04:44:47;;;;;;;58.10;17.15;;;;;;;;;;4917639;29;20032;-71
2022/03/31 04:47:13;;;;;;;56.17;16.40;;;;;;;;;;4917645;29;20036;-71
2022/03/31 04:49:38;;;;;;;45.80;16.40;;;;;;;;;;4917458;29;20067;-71
2022/03/31 04:52:05;;;;;;;45.80;15.82;;;;;;;;;;4917938;29;20119;-71
2022/03/31 04:54:31;;;;;;;67.40;16.40;;;;;;;;;;4917694;29;20040;-71
2022/03/31 04:56:57;;;;;;;46.78;15.30;;;;;;;;;;4924320;29;20437;-71
2022/03/31 04:59:22;;;;;;;39.67;13.73;;;;;;;;;;4919477;29;20043;-72
2022/03/31 05:01:48;;;;;;;66.13;16.15;;;;;;;;;;4918108;29;20028;-72
2022/03/31 05:04:16;;;;;;;64.32;17.38;;;;;;;;;;4918248;29;20040;-71
2022/03/31 05:06:42;;;;;;;86.78;23.75;;;;;;;;;;4917711;29;20036;-70
2022/03/31 05:09:08;;;;;;;57.40;16.80;;;;;;;;;;4917467;29;20063;-71
2022/03/31 05:11:34;;;;;;;43.47;14.13;;;;;;;;;;4917489;29;20506;-72
2022/03/31 05:14:00;;;;;;;45.45;17.02;;;;;;;;;;4917569;29;20531;-71
2022/03/31 05:16:26;;;;;;;58.65;17.05;;;;;;;;;;4917137;29;20028;-71
2022/03/31 05:18:51;;;;;;;55.75;17.30;;;;;;;;;;4917252;29;20040;-72
2022/03/31 05:21:17;;;;;;;53.88;16.35;;;;;;;;;;4918144;29;20035;-69
2022/03/31 05:23:43;;;;;;;42.58;15.27;;;;;;;;;;4918327;29;20036;-69
2022/03/31 05:26:09;;;;;;;41.38;16.48;;;;;;;;;;4918453;29;20539;-72
2022/03/31 05:28:35;;;;;;;43.67;15.13;;;;;;;;;;4917297;29;20059;-71
2022/03/31 05:31:00;;;;;;;42.67;14.52;;;;;;;;;;4917047;29;20051;-71
2022/03/31 05:33:28;;;;;;;37.85;13.98;;;;;;;;;;4916717;29;20067;-71
2022/03/31 05:35:54;;;;;;;39.03;14.25;;;;;;;;;;4916620;29;20104;-72
2022/03/31 05:38:19;;;;;;;31.00;13.60;;;;;;;;;;4916951;29;20163;-71
2022/03/31 05:40:46;;;;;;;41.50;13.70;;;;;;;;;;4916190;29;20046;-72
2022/03/31 05:43:12;;;;;;;49.17;16.63;;;;;;;;;;4916297;29;20053;-72
2022/03/31 05:45:38;;;;;;;55.72;15.25;;;;;;;;;;4916413;29;20395;-71
2022/03/31 05:48:04;;;;;;;59.38;16.27;;;;;;;;;;4917165;29;20043;-71
2022/03/31 05:50:30;;;;;;;39.08;14.90;;;;;;;;;;4916881;29;20447;-73
2022/03/31 05:52:56;;;;;;;38.50;14.40;;;;;;;;;;4917199;29;20042;-70
2022/03/31 05:55:21;;;;;;;38.67;16.40;;;;;;;;;;4917603;29;20060;-71
2022/03/31 05:57:48;;;;;;;38.08;14.35;;;;;;;;;;4917916;29;20059;-71
2022/03/31 06:00:17;;;;;;;33.80;13.88;;;;;;;;;;4917241;29;20099;-72
2022/03/31 06:02:43;;;;;;;42.40;13.75;;;;;;;;;;4916143;29;20087;-72
2022/03/31 06:05:10;;;;;;;42.28;14.80;;;;;;;;;;4916254;29;20028;-71
2022/03/31 06:07:37;;;;;;;44.30;15.40;;;;;;;;;;4916588;29;20036;-72
2022/03/31 06:10:03;;;;;;;56.08;15.02;;;;;;;;;;4916500;29;20464;-71
2022/03/31 06:12:29;;;;;;;69.03;15.20;;;;;;;;;;4916326;29;20068;-71
2022/03/31 06:14:55;;;;;;;81.80;16.15;;;;;;;;;;4916470;29;20060;-72
2022/03/31 06:17:21;;;;;;;37.45;12.27;;;;;;;;;;4916555;29;20075;-72
2022/03/31 06:19:47;;;;;;;34.28;13.00;;;;;;;;;;4915110;29;20027;-73
2022/03/31 06:22:13;;;;;;;40.45;12.80;;;;;;;;;;4916617;29;20040;-73
2022/03/31 06:24:39;;;;;;;36.30;11.35;;;;;;;;;;4915910;29;20028;-72
2022/03/31 06:27:06;;;;;;;33.38;13.57;;;;;;;;;;4915777;29;20035;-71
2022/03/31 06:29:32;;;;;;;53.67;14.30;;;;;;;;;;4910226;29;20059;-71
2022/03/31 06:31:59;;;;;;;50.65;15.02;;;;;;;;;;4915646;29;20032;-71
2022/03/31 06:34:24;;;;;;;39.92;13.60;;;;;;;;;;4915966;29;20498;-71
2022/03/31 06:36:50;;;;;;;42.08;14.90;;;;;;;;;;4916100;29;20384;-71
2022/03/31 06:39:16;;;;;;;40.78;13.00;;;;;;;;;;4916146;29;20115;-72
2022/03/31 06:41:43;;;;;;;51.85;15.65;;;;;;;;;;4916088;29;20565;-72
2022/03/31 06:44:12;;;;;;;48.00;15.55;;;;;;;;;;4916202;29;20490;-73
2022/03/31 06:46:39;;;;;;;51.75;15.38;;;;;;;;;;4916086;29;20097;-75
2022/03/31 06:49:05;;;;;;;52.78;14.15;;;;;;;;;;4916474;29;20111;-76
2022/03/31 06:51:31;;;;;;;48.90;15.95;;;;;;;;;;4920051;29;20127;-75
2022/03/31 06:53:57;;;;;;;37.30;14.38;;;;;;;;;;4920239;29;20107;-74
2022/03/31 06:56:27;;;;;;;38.45;16.83;;;;;;;;;;4917779;29;20051;-75
2022/03/31 06:58:57;;;;;;;39.70;14.00;;;;;;;;;;4919726;29;20379;-75
2022/03/31 07:01:24;;;;;;;38.10;14.80;;;;;;;;;;4919599;29;20060;-73
2022/03/31 07:03:51;;;;;;;43.80;15.02;;;;;;;;;;4918628;29;20029;-73
2022/03/31 07:06:17;;;;;;;30.90;15.07;;;;;;;;;;4919632;29;20066;-74
2022/03/31 07:08:43;;;;;;;49.63;17.55;;;;;;;;;;4919100;29;20060;-74
2022/03/31 07:11:10;;;;;;;43.15;15.23;;;;;;;;;;4919285;29;20048;-75
2022/03/31 07:13:37;;;;;;;50.25;14.98;;;;;;;;;;4919410;29;20111;-74
2022/03/31 07:16:04;;;;;;;34.70;14.55;;;;;;;;;;4920055;29;20074;-73
2022/03/31 07:18:30;;;;;;;52.35;13.60;;;;;;;;;;4919784;29;20112;-73
2022/03/31 07:20:59;;;;;;;50.22;13.20;;;;;;;;;;4918882;29;20028;-72
2022/03/31 07:23:26;;;;;;;50.20;14.50;;;;;;;;;;4899468;29;20024;-72
2022/03/31 07:25:58;;;;;;;50.35;15.10;;;;;;;;;;4914271;29;20036;-72
2022/03/31 07:28:24;;;;;;;43.13;13.70;;;;;;;;;;4917467;29;20099;-74
2022/03/31 07:30:51;;;;;;;52.75;13.73;;;;;;;;;;4919130;29;20131;-74
2022/03/31 07:33:20;;;;;;;43.25;13.02;;;;;;;;;;4918601;29;20183;-74
2022/03/31 07:35:48;;;;;;;36.60;11.85;;;;;;;;;;4918237;29;20373;-73
2022/03/31 07:38:16;;;;;;;41.50;12.52;;;;;;;;;;4918224;29;20036;-72
2022/03/31 07:40:42;;;;;;;44.13;12.50;;;;;;;;;;4917967;29;20036;-75
2022/03/31 07:43:08;;;;;;;32.70;12.05;;;;;;;;;;4918274;29;20039;-73
2022/03/31 07:45:35;;;;;;;41.45;12.60;;;;;;;;;;4918003;29;20028;-73
2022/03/31 07:48:02;;;;;;;36.72;11.40;;;;;;;;;;4916726;29;20123;-71
2022/03/31 07:50:29;;;;;;;40.00;11.50;;;;;;;;;;4912766;29;20032;-74
2022/03/31 07:52:55;;;;;;;32.88;12.27;;;;;;;;;;4917892;29;20048;-71
2022/03/31 07:55:21;;;;;;;44.25;11.85;;;;;;;;;;4919181;29;20083;-70
2022/03/31 07:57:48;;;;;;;32.33;10.77;;;;;;;;;;4918617;29;20127;-72
2022/03/31 08:00:15;;;;;;;38.35;10.13;;;;;;;;;;4918531;29;20032;-71
2022/03/31 08:02:43;;;;;;;40.92;10.70;;;;;;;;;;4916784;29;20371;-75
2022/03/31 08:05:11;;;;;;;37.45;11.20;;;;;;;;;;4911596;29;20036;-74
2022/03/31 08:07:38;;;;;;;39.40;10.00;;;;;;;;;;4918056;29;20044;-73
2022/03/31 08:10:05;;;;;;;34.85;10.88;;;;;;;;;;4917244;29;20076;-74
2022/03/31 08:12:32;;;;;;;34.92;9.30;;;;;;;;;;4915340;29;20372;-73
2022/03/31 08:14:57;;;;;;;38.35;10.40;;;;;;;;;;4917648;29;20054;-74
2022/03/31 08:17:23;;;;;;;42.33;11.57;;;;;;;;;;4917417;29;20491;-73
2022/03/31 08:19:49;;;;;;;53.97;10.75;;;;;;;;;;4916991;29;20031;-71
2022/03/31 08:22:17;;;;;;;44.10;11.48;;;;;;;;;;4917678;29;20040;-71
2022/03/31 08:24:43;;;;;;;37.45;9.68;;;;;;;;;;4917297;29;20028;-72
2022/03/31 08:27:09;;;;;;;41.63;11.05;;;;;;;;;;4917668;29;20039;-74
2022/03/31 08:29:35;;;;;;;33.05;9.93;;;;;;;;;;4917301;29;20048;-76
2022/03/31 08:32:02;;;;;;;43.78;11.75;;;;;;;;;;4917326;29;20036;-75
2022/03/31 08:34:28;;;;;;;35.10;10.50;;;;;;;;;;4917053;29;20028;-75
2022/03/31 08:36:54;;;;;;;49.10;13.45;;;;;;;;;;4917430;29;20048;-73
2022/03/31 08:39:19;;;;;;;51.05;11.40;;;;;;;;;;4917912;29;20120;-71
2022/03/31 08:41:45;;;;;;;42.88;11.80;;;;;;;;;;4917573;29;20131;-75
2022/03/31 08:44:15;;;;;;;41.30;10.45;;;;;;;;;;4917367;29;20028;-75
2022/03/31 08:46:41;;;;;;;47.10;12.20;;;;;;;;;;4916195;29;20052;-73
2022/03/31 08:49:09;;;;;;;48.40;10.57;;;;;;;;;;4917574;29;20028;-74
2022/03/31 08:51:35;;;;;;;39.20;9.63;;;;;;;;;;4921759;29;20067;-73
2022/03/31 08:54:02;;;;;;;35.63;10.57;;;;;;;;;;4919940;29;20383;-73
2022/03/31 08:56:28;;;;;;;33.25;9.70;;;;;;;;;;4917611;29;20055;-74
2022/03/31 08:58:53;;;;;;;35.88;11.00;;;;;;;;;;4916133;29;20036;-75
2022/03/31 09:01:19;;;;;;;34.42;9.40;;;;;;;;;;4917351;29;20136;-75
2022/03/31 09:03:45;;;;;;;32.58;9.00;;;;;;;;;;4917077;29;20391;-76
2022/03/31 09:06:25;;;;;;;34.50;9.70;;;;;;;;;;4917414;29;20038;-76
2022/03/31 09:09:02;;;;;;;43.60;11.10;;;;;;;;;;4916483;29;20040;-75
2022/03/31 09:11:30;;;;;;;49.00;12.85;;;;;;;;;;4916604;29;20044;-77
2022/03/31 09:14:01;;;;;;;38.55;10.55;;;;;;;;;;4917154;29;20020;-73
2022/03/31 09:16:32;;;;;;;32.03;10.00;;;;;;;;;;4916388;29;20036;-77
2022/03/31 09:19:03;;;;;;;38.67;9.60;;;;;;;;;;4918261;29;20032;-76
2022/03/31 09:21:31;;;;;;;36.88;10.73;;;;;;;;;;4917306;29;20036;-75
2022/03/31 09:23:57;;;;;;;45.60;11.43;;;;;;;;;;4916787;29;20024;-73
2022/03/31 09:26:27;;;;;;;40.40;10.10;;;;;;;;;;4916708;29;20443;-75
2022/03/31 09:28:55;;;;;;;39.65;10.73;;;;;;;;;;4916683;29;20415;-74
2022/03/31 09:31:24;;;;;;;43.70;9.43;;;;;;;;;;4915618;29;20051;-73
2022/03/31 09:33:56;;;;;;;39.95;9.75;;;;;;;;;;4916813;29;20036;-73
2022/03/31 09:36:23;;;;;;;30.05;9.48;;;;;;;;;;4916581;29;20131;-73
2022/03/31 09:39:13;;;;;;;43.83;9.00;;;;;;;;;;4916627;29;20032;-70
2022/03/31 09:41:41;;;;;;;38.38;9.32;;;;;;;;;;4916698;29;20044;-73
2022/03/31 09:44:12;;;;;;;32.25;8.27;;;;;;;;;;4916696;29;20102;-72
2022/03/31 09:46:39;;;;;;;37.55;8.40;;;;;;;;;;4916282;29;20168;-73
2022/03/31 09:49:27;;;;;;;35.35;9.38;;;;;;;;;;4916187;29;20039;-75
2022/03/31 09:52:05;;;;;;;32.83;8.38;;;;;;;;;;4916334;29;20036;-72
2022/03/31 09:54:33;;;;;;;33.08;8.60;;;;;;;;;;4916520;29;20036;-75
2022/03/31 09:57:01;;;;;;;41.22;9.07;;;;;;;;;;4915136;29;20035;-77
2022/03/31 09:59:32;;;;;;;42.05;9.23;;;;;;;;;;4912805;29;20028;-74
2022/03/31 10:01:59;;;;;;;32.33;8.50;;;;;;;;;;4915471;29;20044;-74
2022/03/31 10:04:26;;;;;;;33.88;8.90;;;;;;;;;;4915161;29;20028;-73
2022/03/31 10:06:52;;;;;;;38.30;8.93;;;;;;;;;;4914796;29;20043;-76
2022/03/31 10:09:19;;;;;;;36.25;8.52;;;;;;;;;;4915378;29;20024;-74
2022/03/31 10:11:57;;;;;;;40.88;8.75;;;;;;;;;;4914993;29;20044;-74
2022/03/31 10:14:35;;;;;;;29.50;8.45;;;;;;;;;;4913652;29;20195;-75
2022/03/31 10:17:06;;;;;;;30.98;8.77;;;;;;;;;;4915363;29;20383;-76
2022/03/31 10:19:37;;;;;;;42.28;9.02;;;;;;;;;;4915204;29;20171;-75
2022/03/31 10:22:09;;;;;;;36.80;8.38;;;;;;;;;;4914675;29;20122;-77
2022/03/31 10:24:41;;;;;;;39.15;8.10;;;;;;;;;;4913933;29;20058;-73
2022/03/31 10:27:09;;;;;;;39.97;8.67;;;;;;;;;;4914905;29;20107;-75
2022/03/31 10:29:53;;;;;;;32.75;7.60;;;;;;;;;;4914172;29;20132;-73
2022/03/31 10:32:24;;;;;;;29.38;8.48;;;;;;;;;;4914909;29;20111;-75
2022/03/31 10:34:51;;;;;;;34.80;8.70;;;;;;;;;;4914807;29;20032;-76
2022/03/31 10:37:34;;;;;;;31.85;8.18;;;;;;;;;;4914307;29;20056;-75
2022/03/31 10:40:04;;;;;;;35.78;8.75;;;;;;;;;;4915364;29;20219;-71
2022/03/31 10:42:31;;;;;;;34.78;8.02;;;;;;;;;;4914833;29;20420;-76
2022/03/31 10:45:10;;;;;;;45.88;8.38;;;;;;;;;;4912598;29;20080;-75
2022/03/31 10:47:37;;;;;;;36.05;7.60;;;;;;;;;;4913433;29;20048;-77
2022/03/31 10:50:04;;;;;;;32.78;9.85;;;;;;;;;;4914102;29;20040;-76
2022/03/31 10:52:32;;;;;;;38.30;8.63;;;;;;;;;;4914917;29;20032;-74
2022/03/31 10:55:14;;;;;;;50.72;9.77;;;;;;;;;;4913166;29;20164;-74
2022/03/31 10:57:43;;;;;;;38.90;9.05;;;;;;;;;;4913950;29;20043;-74
2022/03/31 11:00:14;;;;;;;30.17;8.45;;;;;;;;;;4913398;29;20032;-75
2022/03/31 11:02:43;;;;;;;33.00;8.23;;;;;;;;;;4913169;29;20036;-75
2022/03/31 11:05:09;;;;;;;41.33;8.90;;;;;;;;;;4913810;29;20039;-75
2022/03/31 11:07:36;;;;;;;47.03;10.32;;;;;;;;;;4914408;29;20578;-75
2022/03/31 11:10:11;;;;;;;40.88;9.32;;;;;;;;;;4912637;29;20471;-73
2022/03/31 11:12:39;;;;;;;46.70;9.10;;;;;;;;;;4914021;29;20112;-74
2022/03/31 11:15:11;;;;;;;44.60;9.60;;;;;;;;;;4914949;29;20024;-76
2022/03/31 11:17:39;;;;;;;31.92;8.35;;;;;;;;;;4915963;29;20376;-74
2022/03/31 11:20:26;;;;;;;37.08;8.27;;;;;;;;;;4915579;29;20032;-73
2022/03/31 11:22:55;;;;;;;37.90;9.20;;;;;;;;;;4915004;29;20032;-75
2022/03/31 11:25:23;;;;;;;32.30;7.65;;;;;;;;;;4914734;29;20025;-73
2022/03/31 11:27:50;;;;;;;35.33;9.25;;;;;;;;;;4915278;29;20055;-75
2022/03/31 11:30:19;;;;;;;38.92;8.60;;;;;;;;;;4915410;29;20092;-74
2022/03/31 11:32:48;;;;;;;39.85;8.88;;;;;;;;;;4914597;29;20040;-72
2022/03/31 11:35:19;;;;;;;35.75;8.43;;;;;;;;;;4917307;29;20028;-75
2022/03/31 11:38:02;;;;;;;38.05;9.82;;;;;;;;;;4917909;29;20040;-75
2022/03/31 11:40:29;;;;;;;46.75;8.88;;;;;;;;;;4918911;29;20048;-75
2022/03/31 11:42:59;;;;;;;43.63;8.45;;;;;;;;;;4919124;29;20028;-76
2022/03/31 11:45:36;;;;;;;38.33;7.68;;;;;;;;;;4918705;29;20119;-75
2022/03/31 11:48:09;;;;;;;45.05;8.85;;;;;;;;;;4918826;29;20071;-76
2022/03/31 11:50:38;;;;;;;33.77;7.70;;;;;;;;;;4918750;29;20067;-75
2022/03/31 11:53:15;;;;;;;43.75;8.35;;;;;;;;;;4918647;29;20078;-77
2022/03/31 11:55:41;;;;;;;56.17;8.35;;;;;;;;;;4918721;29;20120;-73
2022/03/31 11:58:08;;;;;;;53.67;9.10;;;;;;;;;;4918550;29;20103;-76
2022/03/31 12:00:34;;;;;;;34.38;8.02;;;;;;;;;;4918781;29;20028;-75
2022/03/31 12:03:03;;;;;;;40.40;8.30;;;;;;;;;;4918695;29;20059;-75
2022/03/31 12:05:30;;;;;;;46.08;9.40;;;;;;;;;;4918760;29;20084;-74
2022/03/31 12:07:58;;;;;;;38.80;8.45;;;;;;;;;;4918640;29;20047;-73
2022/03/31 12:10:25;;;;;;;40.70;8.65;;;;;;;;;;4918369;29;20063;-72
2022/03/31 12:12:53;;;;;;;48.25;8.95;;;;;;;;;;4918450;29;20025;-74
2022/03/31 12:15:24;;;;;;;45.50;9.13;;;;;;;;;;4918303;29;20062;-74
2022/03/31 12:17:59;;;;;;;39.83;8.10;;;;;;;;;;4918622;29;20065;-78
2022/03/31 12:20:27;;;;;;;35.80;8.93;;;;;;;;;;4917651;29;20115;-75
2022/03/31 12:22:54;;;;;;;41.58;9.10;;;;;;;;;;4917210;29;20387;-74
2022/03/31 12:25:46;;;;;;;43.03;8.45;;;;;;;;;;4918384;29;20029;-77
2022/03/31 12:28:13;;;;;;;39.05;7.32;;;;;;;;;;4916010;29;20052;-76
2022/03/31 12:30:45;;;;;;;40.22;8.73;;;;;;;;;;4918036;29;20036;-72
2022/03/31 12:33:36;;;;;;;40.17;9.15;;;;;;;;;;4918283;29;20036;-74
2022/03/31 12:36:04;;;;;;;34.78;8.27;;;;;;;;;;4917500;29;20047;-75
2022/03/31 12:38:36;;;;;;;39.88;8.57;;;;;;;;;;4918223;29;20471;-74
2022/03/31 12:41:06;;;;;;;40.28;8.13;;;;;;;;;;4918454;29;20358;-74
2022/03/31 12:43:32;;;;;;;37.92;8.55;;;;;;;;;;4918352;29;20059;-73
2022/03/31 12:46:10;;;;;;;43.22;9.38;;;;;;;;;;4917290;29;20028;-75
2022/03/31 12:48:36;;;;;;;41.42;8.40;;;;;;;;;;4917941;29;20044;-73
2022/03/31 12:51:02;;;;;;;45.03;10.02;;;;;;;;;;4917875;29;20032;-75
2022/03/31 12:53:41;;;;;;;38.35;9.65;;;;;;;;;;4917640;29;20040;-73
2022/03/31 12:56:09;;;;;;;50.25;9.48;;;;;;;;;;4917461;29;20028;-76
2022/03/31 12:58:38;;;;;;;47.83;8.30;;;;;;;;;;4917598;29;20135;-74
2022/03/31 13:01:04;;;;;;;34.60;7.95;;;;;;;;;;4917594;29;20040;-74
2022/03/31 13:03:30;;;;;;;48.38;8.63;;;;;;;;;;4914100;29;20032;-73
2022/03/31 13:05:56;;;;;;;33.58;8.43;;;;;;;;;;4917006;29;20107;-75
2022/03/31 13:08:22;;;;;;;39.75;8.70;;;;;;;;;;4917195;29;20103;-72
2022/03/31 13:10:48;;;;;;;40.00;8.30;;;;;;;;;;4917074;29;20043;-74
2022/03/31 13:13:14;;;;;;;40.88;8.30;;;;;;;;;;4917054;29;20028;-74
2022/03/31 13:15:41;;;;;;;41.92;8.85;;;;;;;;;;4916978;29;20063;-74
2022/03/31 13:18:08;;;;;;;41.70;9.60;;;;;;;;;;4917270;29;20471;-72
2022/03/31 13:20:35;;;;;;;45.25;8.68;;;;;;;;;;4917264;29;20054;-74
2022/03/31 13:23:01;;;;;;;41.70;8.55;;;;;;;;;;4917075;29;20048;-70
2022/03/31 13:25:27;;;;;;;47.05;9.20;;;;;;;;;;4917055;29;20040;-73
2022/03/31 13:27:53;;;;;;;41.67;8.30;;;;;;;;;;4916468;29;20510;-73
2022/03/31 13:30:19;;;;;;;40.85;9.25;;;;;;;;;;4916524;29;20040;-73
2022/03/31 13:32:45;;;;;;;35.17;8.50;;;;;;;;;;4916052;29;20087;-74
2022/03/31 13:35:12;;;;;;;39.13;8.77;;;;;;;;;;4916469;29;20040;-74
2022/03/31 13:37:38;;;;;;;44.92;9.75;;;;;;;;;;4916670;29;20025;-75
2022/03/31 13:40:07;;;;;;;40.17;9.20;;;;;;;;;;4916748;29;20032;-74
2022/03/31 13:42:37;;;;;;;44.47;9.75;;;;;;;;;;4916826;29;20024;-75
2022/03/31 13:45:09;;;;;;;42.70;9.20;;;;;;;;;;4916150;29;20043;-76
2022/03/31 13:47:35;;;;;;;43.05;8.52;;;;;;;;;;4916624;29;20028;-75
2022/03/31 13:50:01;;;;;;;35.03;7.93;;;;;;;;;;4916201;29;20357;-73
2022/03/31 13:52:27;;;;;;;36.97;9.35;;;;;;;;;;4916445;29;20032;-74
2022/03/31 13:54:53;;;;;;;51.60;8.85;;;;;;;;;;4915171;29;20095;-74
2022/03/31 14:02:48;;;;;;;43.83;10.18;;;;;;;;;;4907923;29;20053;-75
2022/03/31 14:05:14;;;;;;;47.17;9.65;;;;;;;;;;4915480;29;20711;-74
2022/03/31 14:07:41;;;;;;;49.22;9.63;;;;;;;;;;4915341;29;20039;-73
2022/03/31 14:10:07;;;;;;;41.95;9.35;;;;;;;;;;4915255;29;20028;-74
2022/03/31 14:12:33;;;;;;;43.88;9.75;;;;;;;;;;4914971;29;20171;-69
2022/03/31 14:14:59;;;;;;;49.20;10.45;;;;;;;;;;4915418;29;20099;-74
2022/03/31 14:17:25;;;;;;;42.72;10.20;;;;;;;;;;4915347;29;20036;-71
2022/03/31 14:19:50;;;;;;;41.33;8.38;;;;;;;;;;4914798;29;20111;-72
2022/03/31 14:22:16;;;;;;;48.15;8.00;;;;;;;;;;4913989;29;20040;-72
2022/03/31 14:24:42;;;;;;;37.75;8.05;;;;;;;;;;4914594;29;20020;-72
2022/03/31 14:27:08;;;;;;;42.45;9.40;;;;;;;;;;4915367;29;20041;-71
2022/03/31 14:29:35;;;;;;;52.33;8.57;;;;;;;;;;4916229;29;20058;-73
2022/03/31 14:32:03;;;;;;;36.38;8.65;;;;;;;;;;4915826;29;20111;-72
2022/03/31 14:34:29;;;;;;;38.92;7.40;;;;;;;;;;4916109;29;20036;-72